Time;durP1;ratioP1;P1;durP2;ratioP2;P2;SDS_P1;SDS_P2;PMS_P1;PMS_P2;Temp;Humidity;BMP_temperature;BMP_pressure;BME280_temperature;BME280_humidity;BME280_pressure;Samples;Min_cycle;Max_cycle;Signal;HPM_P1;HPM_P2
2023/01/01 00:01:24;;;;;;;16.77;9.57;;;13.80;99.90;;;;;;6046443;23;20347;-88
2023/01/01 00:03:55;;;;;;;20.73;10.52;;;13.80;99.90;;;;;;5997830;23;20030;-88
2023/01/01 00:06:21;;;;;;;16.98;9.10;;;13.80;99.90;;;;;;5998919;23;20019;-89
2023/01/01 00:08:47;;;;;;;17.05;8.88;;;13.60;99.90;;;;;;5999685;23;20023;-89
2023/01/01 00:11:13;;;;;;;17.45;8.77;;;13.50;99.90;;;;;;6023172;23;20077;-88
2023/01/01 00:13:44;;;;;;;17.33;8.68;;;13.50;99.90;;;;;;6000456;23;20024;-88
2023/01/01 00:16:12;;;;;;;18.58;8.75;;;13.50;99.90;;;;;;6048473;23;20027;-89
2023/01/01 00:18:41;;;;;;;19.73;9.07;;;13.30;99.90;;;;;;5999950;23;20019;-88
2023/01/01 00:21:12;;;;;;;18.35;9.23;;;13.30;99.90;;;;;;6070397;23;20079;-88
2023/01/01 00:23:38;;;;;;;18.73;9.75;;;13.30;99.90;;;;;;5999337;23;20367;-88
2023/01/01 00:26:11;;;;;;;17.70;10.05;;;13.20;99.90;;;;;;6018945;23;20019;-88
2023/01/01 00:28:40;;;;;;;20.65;9.73;;;13.20;99.90;;;;;;5998156;23;20026;-89
2023/01/01 00:31:15;;;;;;;16.67;9.98;;;13.20;99.90;;;;;;5999364;23;20364;-88
2023/01/01 00:33:48;;;;;;;16.08;9.50;;;13.20;99.90;;;;;;6000840;23;20030;-89
2023/01/01 00:36:16;;;;;;;17.25;9.07;;;13.20;99.90;;;;;;6026132;23;20251;-88
2023/01/01 00:38:43;;;;;;;19.95;10.07;;;13.10;99.90;;;;;;6000789;23;20023;-88
2023/01/01 00:41:12;;;;;;;19.85;11.15;;;13.10;99.90;;;;;;6001548;23;20038;-89
2023/01/01 00:43:38;;;;;;;23.77;11.98;;;13.10;99.90;;;;;;6000679;23;20042;-88
2023/01/01 00:46:05;;;;;;;22.35;12.93;;;13.10;99.90;;;;;;6001950;23;20022;-88
2023/01/01 00:48:34;;;;;;;22.58;12.68;;;13.20;99.90;;;;;;6001669;23;20117;-87
2023/01/01 00:51:00;;;;;;;27.48;14.73;;;13.20;99.90;;;;;;6001700;23;20023;-88
2023/01/01 00:53:29;;;;;;;25.38;15.27;;;13.20;99.90;;;;;;6000177;23;20018;-88
2023/01/01 00:55:55;;;;;;;27.55;16.95;;;13.20;99.90;;;;;;6024610;23;20098;-87
2023/01/01 00:58:22;;;;;;;32.72;17.27;;;13.20;99.90;;;;;;6001204;23;20457;-88
2023/01/01 01:00:49;;;;;;;31.50;18.42;;;13.40;99.90;;;;;;6000326;23;20058;-88
2023/01/01 01:03:27;;;;;;;34.30;17.92;;;13.30;99.90;;;;;;5999869;23;20098;-89
2023/01/01 01:06:08;;;;;;;26.83;18.13;;;13.30;99.90;;;;;;6000937;23;20623;-89
2023/01/01 01:08:37;;;;;;;24.63;15.32;;;13.40;99.90;;;;;;6000995;23;20087;-88
2023/01/01 01:11:22;;;;;;;25.73;14.93;;;13.40;99.90;;;;;;6002166;23;20015;-88
2023/01/01 01:13:50;;;;;;;27.40;16.23;;;13.40;99.90;;;;;;6001957;23;20131;-88
2023/01/01 01:16:17;;;;;;;22.33;16.27;;;13.40;99.90;;;;;;6025749;23;20019;-88
2023/01/01 01:18:49;;;;;;;29.05;16.45;;;13.50;99.90;;;;;;6002391;23;20079;-88
2023/01/01 01:21:16;;;;;;;27.70;16.88;;;13.50;99.90;;;;;;6000602;23;20035;-87
2023/01/01 01:23:42;;;;;;;32.88;17.65;;;13.50;99.90;;;;;;6000395;23;20268;-89
2023/01/01 01:26:15;;;;;;;30.50;18.20;;;13.50;99.90;;;;;;6024640;23;20019;-89
2023/01/01 01:28:42;;;;;;;25.73;17.02;;;13.50;99.90;;;;;;6001563;23;20063;-87
2023/01/01 01:31:08;;;;;;;28.83;19.42;;;13.50;99.90;;;;;;6002485;23;20537;-88
2023/01/01 01:33:35;;;;;;;29.08;20.05;;;13.50;99.90;;;;;;6024015;23;20125;-87
2023/01/01 01:36:01;;;;;;;28.63;19.30;;;13.40;99.90;;;;;;6023644;23;20023;-87
2023/01/01 01:38:27;;;;;;;33.47;23.58;;;13.40;99.90;;;;;;6000640;23;20034;-89
2023/01/01 01:40:52;;;;;;;37.92;23.70;;;13.20;99.90;;;;;;6001688;23;20102;-87
2023/01/01 01:43:25;;;;;;;32.28;23.58;;;13.20;99.90;;;;;;6025192;23;20446;-87
2023/01/01 01:46:04;;;;;;;39.75;24.92;;;13.20;99.90;;;;;;6001754;23;20178;-89
2023/01/01 01:48:36;;;;;;;42.65;28.13;;;13.10;99.90;;;;;;6001134;23;20461;-87
2023/01/01 01:51:02;;;;;;;39.20;24.90;;;13.00;99.90;;;;;;6000715;23;20512;-88
2023/01/01 01:53:30;;;;;;;42.63;28.67;;;13.00;99.90;;;;;;6023613;23;20094;-91
2023/01/01 01:56:01;;;;;;;42.58;29.33;;;12.90;99.90;;;;;;6000692;23;20386;-87
2023/01/01 01:58:30;;;;;;;39.58;27.60;;;12.90;99.90;;;;;;6023971;23;20038;-87
2023/01/01 02:00:56;;;;;;;38.38;28.33;;;12.80;99.90;;;;;;6024906;23;20058;-88
2023/01/01 02:03:23;;;;;;;41.10;27.48;;;12.90;99.90;;;;;;6000475;23;20070;-88
2023/01/01 02:05:50;;;;;;;38.42;26.70;;;12.80;99.90;;;;;;6024098;23;20018;-88
2023/01/01 02:08:17;;;;;;;39.10;27.88;;;12.90;99.90;;;;;;6000445;23;20023;-88
2023/01/01 02:10:43;;;;;;;41.22;25.48;;;12.80;99.90;;;;;;5998841;23;20026;-87
2023/01/01 02:13:12;;;;;;;36.63;24.75;;;12.90;99.90;;;;;;5999429;23;20015;-88
2023/01/01 02:16:01;;;;;;;37.45;27.98;;;12.90;99.90;;;;;;5998331;23;20778;-88
2023/01/01 02:18:38;;;;;;;38.28;25.52;;;12.90;99.90;;;;;;5998569;23;20019;-88
2023/01/01 02:21:53;;;;;;;36.90;24.38;;;12.90;99.90;;;;;;5998480;23;20254;-87
2023/01/01 02:24:19;;;;;;;37.05;24.50;;;12.90;99.90;;;;;;5909888;23;20098;-88
2023/01/01 02:26:57;;;;;;;34.03;22.33;;;13.00;99.90;;;;;;6023133;23;20118;-89
2023/01/01 02:29:52;;;;;;;34.05;22.23;;;13.10;99.90;;;;;;5998862;23;20015;-89
2023/01/01 02:32:26;;;;;;;29.97;21.77;;;13.10;99.90;;;;;;6022011;23;20408;-88
2023/01/01 02:35:33;;;;;;;27.67;18.53;;;13.10;99.90;;;;;;5998403;23;20091;-89
2023/01/01 02:37:52;;;;;;;30.42;19.17;;;13.20;99.90;;;;;;6020404;23;20055;-87
2023/01/01 02:40:20;;;;;;;30.48;20.33;;;13.20;99.90;;;;;;5998307;23;20019;-87
2023/01/01 02:42:49;;;;;;;25.00;19.73;;;13.20;99.90;;;;;;6000043;23;20480;-88
2023/01/01 02:45:15;;;;;;;33.25;19.73;;;13.10;99.90;;;;;;5998660;23;20290;-89
2023/01/01 02:47:40;;;;;;;24.13;16.63;;;13.10;99.90;;;;;;5999119;23;20023;-88
2023/01/01 02:50:26;;;;;;;30.13;18.08;;;13.20;99.90;;;;;;5999436;23;20055;-90
2023/01/01 02:53:07;;;;;;;30.50;17.65;;;13.20;99.90;;;;;;5998463;23;20834;-88
2023/01/01 02:56:07;;;;;;;23.63;15.43;;;13.20;99.90;;;;;;5999285;23;20595;-88
2023/01/01 03:02:16;;;;;;;19.17;13.45;;;13.20;99.90;;;;;;5973626;23;20382;-89
2023/01/01 03:04:56;;;;;;;22.58;13.05;;;13.30;99.90;;;;;;5997969;23;20584;-88
2023/01/01 03:07:44;;;;;;;22.05;12.57;;;13.20;99.90;;;;;;5998560;23;20289;-88
2023/01/01 03:10:54;;;;;;;19.98;10.85;;;13.30;99.90;;;;;;5997163;23;20102;-89
2023/01/01 03:13:26;;;;;;;19.17;11.45;;;13.30;99.90;;;;;;5998648;23;20074;-88
2023/01/01 03:15:59;;;;;;;22.13;10.60;;;13.40;99.90;;;;;;6022203;23;20457;-89
2023/01/01 03:18:37;;;;;;;20.67;9.73;;;13.40;99.90;;;;;;5998624;23;20023;-88
2023/01/01 03:21:05;;;;;;;17.20;9.10;;;13.50;99.90;;;;;;6043867;23;20016;-88
2023/01/01 03:23:45;;;;;;;18.77;9.55;;;13.50;99.90;;;;;;5998080;23;20054;-88
2023/01/01 03:26:15;;;;;;;19.23;8.68;;;13.50;99.90;;;;;;6046492;23;20094;-87
2023/01/01 03:28:57;;;;;;;15.70;7.63;;;13.50;99.90;;;;;;5998520;23;20498;-88
2023/01/01 03:31:24;;;;;;;14.27;7.57;;;13.50;99.90;;;;;;5999010;23;20114;-89
2023/01/01 03:34:04;;;;;;;19.95;6.13;;;13.60;99.90;;;;;;6021307;23;20417;-89
2023/01/01 03:36:34;;;;;;;15.18;7.03;;;13.70;99.90;;;;;;5999149;23;20041;-88
2023/01/01 03:39:05;;;;;;;12.13;5.97;;;13.50;99.90;;;;;;6071014;23;20043;-88
2023/01/01 03:42:04;;;;;;;15.68;6.15;;;13.40;99.90;;;;;;6024188;23;20093;-88
2023/01/01 03:44:46;;;;;;;18.33;5.97;;;13.20;99.90;;;;;;6070665;23;20466;-86
2023/01/01 03:47:12;;;;;;;15.20;5.85;;;13.20;99.90;;;;;;5999192;23;20025;-88
2023/01/01 03:49:38;;;;;;;15.13;6.00;;;13.00;99.90;;;;;;6019524;23;20011;-87
2023/01/01 03:52:30;;;;;;;15.07;6.15;;;12.90;99.90;;;;;;6044889;23;20457;-88
2023/01/01 03:55:17;;;;;;;14.27;6.88;;;12.70;99.90;;;;;;6071518;23;20034;-90
2023/01/01 03:57:49;;;;;;;13.05;5.68;;;12.60;99.90;;;;;;6048256;23;20045;-87
2023/01/01 04:00:27;;;;;;;11.18;5.65;;;12.50;99.90;;;;;;6023225;23;20469;-88
2023/01/01 04:03:01;;;;;;;16.92;7.07;;;12.40;99.90;;;;;;5998625;23;20046;-88
2023/01/01 04:05:29;;;;;;;11.98;6.03;;;12.40;99.90;;;;;;6021156;23;20027;-87
2023/01/01 04:07:58;;;;;;;12.70;5.97;;;12.30;99.90;;;;;;5997262;23;20062;-87
2023/01/01 04:10:27;;;;;;;17.30;6.88;;;12.30;99.90;;;;;;5997607;23;20066;-89
2023/01/01 04:12:55;;;;;;;16.48;6.13;;;12.20;99.90;;;;;;5997713;23;20055;-88
2023/01/01 04:15:26;;;;;;;15.20;6.22;;;12.20;99.90;;;;;;5997402;23;20019;-88
2023/01/01 04:17:53;;;;;;;17.67;6.40;;;12.10;99.90;;;;;;6023194;23;20426;-88
2023/01/01 04:20:20;;;;;;;15.38;5.85;;;12.10;99.90;;;;;;5997800;23;20125;-89
2023/01/01 04:22:49;;;;;;;11.50;6.18;;;12.10;99.90;;;;;;5996583;23;20030;-88
2023/01/01 04:25:16;;;;;;;13.82;5.68;;;12.10;99.90;;;;;;5998594;23;20023;-89
2023/01/01 04:27:42;;;;;;;15.55;5.75;;;12.10;99.90;;;;;;5998222;23;20472;-89
2023/01/01 04:30:10;;;;;;;14.30;5.63;;;12.10;99.90;;;;;;6045441;23;20023;-87
2023/01/01 04:32:35;;;;;;;11.88;5.32;;;12.10;99.90;;;;;;5999893;23;20027;-88
2023/01/01 04:35:04;;;;;;;13.98;5.18;;;12.10;99.90;;;;;;6021832;23;20015;-87
2023/01/01 04:37:30;;;;;;;13.05;5.90;;;12.10;99.90;;;;;;5997735;23;20353;-88
2023/01/01 04:39:56;;;;;;;16.60;5.38;;;12.10;99.90;;;;;;6000436;23;20019;-87
2023/01/01 04:42:21;;;;;;;16.98;5.82;;;12.00;99.90;;;;;;6000324;23;20114;-89
2023/01/01 04:44:47;;;;;;;17.30;5.68;;;12.10;99.90;;;;;;6022820;23;20011;-88
2023/01/01 04:47:13;;;;;;;13.57;5.00;;;12.00;99.90;;;;;;6046486;23;20015;-88
2023/01/01 04:49:38;;;;;;;12.55;5.10;;;12.00;99.90;;;;;;5999492;23;20027;-88
2023/01/01 04:52:04;;;;;;;16.73;5.60;;;12.00;99.90;;;;;;5998761;23;20011;-88
2023/01/01 04:54:30;;;;;;;15.65;5.35;;;11.90;99.90;;;;;;5999764;23;20015;-88
2023/01/01 04:56:56;;;;;;;17.38;6.30;;;12.00;99.90;;;;;;6046876;23;20562;-88
2023/01/01 04:59:21;;;;;;;17.30;5.35;;;11.90;99.90;;;;;;6046426;23;20015;-88
2023/01/01 05:01:47;;;;;;;12.57;5.30;;;12.00;99.90;;;;;;6046491;23;20063;-88
2023/01/01 05:04:14;;;;;;;11.00;3.60;;;12.00;99.90;;;;;;6068841;23;20051;-87
2023/01/01 05:06:39;;;;;;;15.25;4.70;;;12.20;99.90;;;;;;5997231;23;20102;-89
2023/01/01 05:09:07;;;;;;;12.15;4.30;;;12.20;99.90;;;;;;5999575;23;20370;-86
2023/01/01 05:11:33;;;;;;;12.20;4.03;;;12.30;99.90;;;;;;6021802;23;20460;-88
2023/01/01 05:14:00;;;;;;;9.05;4.30;;;12.30;99.90;;;;;;5997251;23;20413;-88
2023/01/01 05:16:29;;;;;;;10.80;3.65;;;12.40;99.90;;;;;;5996561;23;20488;-89
2023/01/01 05:18:55;;;;;;;12.50;4.05;;;12.40;99.90;;;;;;5997513;23;20359;-88
2023/01/01 05:21:28;;;;;;;14.20;3.92;;;12.40;99.90;;;;;;5999396;23;20554;-87
2023/01/01 05:23:55;;;;;;;9.68;3.53;;;12.40;99.90;;;;;;5999138;23;20535;-87
2023/01/01 05:26:23;;;;;;;6.78;3.78;;;12.40;99.90;;;;;;6047296;23;20015;-87
2023/01/01 05:28:49;;;;;;;10.15;3.17;;;12.50;99.90;;;;;;5999526;23;20078;-87
2023/01/01 05:31:17;;;;;;;10.30;3.25;;;12.50;99.90;;;;;;6000322;23;20098;-88
2023/01/01 05:33:47;;;;;;;6.93;3.10;;;12.50;99.90;;;;;;6070662;23;20496;-88
2023/01/01 05:36:25;;;;;;;9.43;3.35;;;12.50;99.90;;;;;;5998533;23;20019;-87
2023/01/01 05:38:51;;;;;;;13.75;3.67;;;12.50;99.90;;;;;;6071113;23;20046;-87
2023/01/01 05:41:18;;;;;;;8.98;3.25;;;12.50;99.90;;;;;;6023681;23;20214;-88
2023/01/01 05:43:44;;;;;;;8.43;3.00;;;12.40;99.90;;;;;;6000195;23;20015;-86
2023/01/01 05:46:15;;;;;;;9.90;2.97;;;12.50;99.90;;;;;;5999244;23;20075;-87
2023/01/01 05:48:41;;;;;;;8.75;2.85;;;12.50;99.90;;;;;;6000294;23;20700;-87
2023/01/01 05:51:13;;;;;;;9.75;3.38;;;12.60;99.90;;;;;;6023186;23;20301;-88
2023/01/01 05:53:39;;;;;;;8.65;2.83;;;12.60;99.90;;;;;;6000116;23;20026;-88
2023/01/01 05:56:06;;;;;;;7.90;2.83;;;12.50;99.90;;;;;;5999806;23;20027;-88
2023/01/01 05:58:33;;;;;;;8.68;3.10;;;12.50;99.90;;;;;;5999471;23;20327;-87
2023/01/01 06:01:14;;;;;;;7.93;2.63;;;12.60;99.90;;;;;;6001780;23;20360;-88
2023/01/01 06:03:42;;;;;;;10.85;2.35;;;12.60;99.90;;;;;;6071958;23;20658;-87
2023/01/01 06:06:13;;;;;;;7.30;2.35;;;12.60;99.90;;;;;;5999820;23;20481;-89
2023/01/01 06:08:47;;;;;;;9.25;1.95;;;12.60;99.90;;;;;;6000464;23;20253;-89
2023/01/01 06:11:13;;;;;;;6.82;1.83;;;12.60;99.90;;;;;;5999626;23;20019;-88
2023/01/01 06:13:38;;;;;;;6.35;1.75;;;12.50;99.90;;;;;;6000207;23;20101;-89
2023/01/01 06:16:05;;;;;;;5.68;1.83;;;12.60;99.90;;;;;;5998697;23;20158;-89
2023/01/01 06:18:33;;;;;;;7.63;1.88;;;12.60;99.90;;;;;;6046872;23;20031;-89
2023/01/01 06:21:06;;;;;;;6.35;1.80;;;12.60;99.90;;;;;;5999927;23;20452;-88
2023/01/01 06:23:32;;;;;;;5.13;1.60;;;12.60;99.90;;;;;;5999157;23;20098;-89
2023/01/01 06:26:16;;;;;;;5.88;1.50;;;12.50;99.90;;;;;;6046849;23;20469;-88
2023/01/01 06:28:42;;;;;;;4.32;1.48;;;12.60;99.90;;;;;;6022348;23;20025;-89
2023/01/01 06:31:10;;;;;;;5.57;1.60;;;12.50;99.90;;;;;;5999024;23;20023;-88
2023/01/01 06:33:36;;;;;;;6.20;1.80;;;12.50;99.90;;;;;;6046943;23;20050;-89
2023/01/01 06:36:05;;;;;;;3.67;1.50;;;12.50;99.90;;;;;;5999747;23;20023;-87
2023/01/01 06:38:36;;;;;;;6.55;1.95;;;12.50;99.90;;;;;;6023194;23;20065;-88
2023/01/01 06:41:05;;;;;;;4.65;1.30;;;12.40;99.90;;;;;;6023418;23;20015;-87
2023/01/01 06:43:34;;;;;;;4.82;1.40;;;12.40;99.90;;;;;;6047040;23;20090;-88
2023/01/01 06:46:18;;;;;;;7.45;1.55;;;12.30;99.90;;;;;;5999371;23;20015;-88
2023/01/01 06:48:45;;;;;;;6.30;1.48;;;12.40;99.90;;;;;;5999643;23;20050;-88
2023/01/01 06:51:13;;;;;;;7.68;1.85;;;12.40;99.90;;;;;;5999410;23;20019;-88
2023/01/01 06:53:39;;;;;;;7.45;1.60;;;12.40;99.90;;;;;;5998546;23;20030;-88
2023/01/01 06:56:08;;;;;;;6.95;1.60;;;12.30;99.90;;;;;;6000363;23;20046;-87
2023/01/01 06:58:34;;;;;;;6.40;1.83;;;12.40;99.90;;;;;;5999203;23;20473;-88
2023/01/01 07:01:14;;;;;;;8.77;1.85;;;12.40;99.90;;;;;;5999547;23;20026;-88
2023/01/01 07:03:40;;;;;;;5.72;1.80;;;12.40;99.90;;;;;;6069898;23;20070;-87
2023/01/01 07:06:08;;;;;;;6.03;1.45;;;12.30;99.90;;;;;;6071508;23;20011;-88
2023/01/01 07:08:34;;;;;;;7.82;1.77;;;12.30;99.90;;;;;;6000246;23;20129;-87
2023/01/01 07:11:01;;;;;;;10.40;1.70;;;12.30;99.90;;;;;;6000119;23;20015;-88
2023/01/01 07:13:28;;;;;;;8.90;1.95;;;12.30;99.90;;;;;;5999896;23;20027;-88
2023/01/01 07:15:55;;;;;;;8.07;2.08;;;12.20;99.90;;;;;;5999727;23;20447;-88
2023/01/01 07:18:22;;;;;;;10.02;1.80;;;12.10;99.90;;;;;;6024536;23;20344;-88
2023/01/01 07:21:02;;;;;;;9.45;1.95;;;12.10;99.90;;;;;;6023497;23;20346;-88
2023/01/01 07:23:31;;;;;;;11.88;2.15;;;12.10;99.90;;;;;;6021996;23;20015;-88
2023/01/01 07:25:57;;;;;;;10.55;1.92;;;12.10;99.90;;;;;;6045805;23;20039;-87
2023/01/01 07:28:24;;;;;;;10.55;2.00;;;12.10;99.90;;;;;;6046408;23;20019;-87
2023/01/01 07:30:51;;;;;;;13.63;2.80;;;12.00;99.90;;;;;;5999742;23;20102;-88
2023/01/01 07:33:19;;;;;;;7.78;2.10;;;12.00;99.90;;;;;;6071628;23;20015;-87
2023/01/01 07:35:45;;;;;;;10.10;2.15;;;12.00;99.90;;;;;;5999679;23;20725;-89
2023/01/01 07:38:11;;;;;;;13.07;2.50;;;12.00;99.90;;;;;;5999914;23;20102;-87
2023/01/01 07:40:37;;;;;;;14.75;2.83;;;12.00;99.90;;;;;;6001037;23;20011;-88
2023/01/01 07:43:03;;;;;;;8.48;2.03;;;11.90;99.90;;;;;;5998096;23;20015;-89
2023/01/01 07:45:29;;;;;;;8.75;2.72;;;12.00;99.90;;;;;;5999566;23;20075;-87
2023/01/01 07:47:57;;;;;;;11.02;2.25;;;11.90;99.90;;;;;;6047509;23;20027;-89
2023/01/01 07:50:24;;;;;;;11.07;2.33;;;12.00;99.90;;;;;;6071068;23;20422;-89
2023/01/01 07:52:50;;;;;;;8.32;2.55;;;11.90;99.90;;;;;;5998863;23;20102;-88
2023/01/01 07:55:21;;;;;;;9.88;2.25;;;11.80;99.90;;;;;;6047313;23;20051;-87
2023/01/01 07:57:47;;;;;;;10.93;2.65;;;11.90;99.90;;;;;;5999066;23;20640;-86
2023/01/01 08:00:15;;;;;;;8.95;2.10;;;11.80;99.90;;;;;;6045621;23;20019;-89
2023/01/01 08:02:42;;;;;;;14.48;2.85;;;11.90;99.90;;;;;;6023410;23;20019;-87
2023/01/01 08:05:08;;;;;;;15.13;2.78;;;11.80;99.90;;;;;;6022700;23;20011;-88
2023/01/01 08:07:37;;;;;;;18.15;2.88;;;11.80;99.90;;;;;;6044810;23;20038;-88
2023/01/01 08:10:05;;;;;;;14.40;3.00;;;11.80;99.90;;;;;;6023456;23;20027;-88
2023/01/01 08:12:31;;;;;;;13.23;3.47;;;11.90;99.90;;;;;;5999579;23;20042;-86
2023/01/01 08:14:57;;;;;;;10.07;2.83;;;11.80;99.90;;;;;;6023419;23;20205;-86
2023/01/01 08:17:23;;;;;;;16.70;2.78;;;11.70;99.90;;;;;;6048072;23;20058;-87
2023/01/01 08:19:49;;;;;;;15.70;3.10;;;11.80;99.90;;;;;;5999168;23;20038;-88
2023/01/01 08:22:18;;;;;;;12.00;3.38;;;11.80;99.90;;;;;;6000884;23;20465;-88
2023/01/01 08:24:44;;;;;;;13.63;2.67;;;11.80;99.90;;;;;;6022768;23;20071;-89
2023/01/01 08:27:14;;;;;;;14.80;3.78;;;11.70;99.90;;;;;;6001478;23;20015;-88
2023/01/01 08:29:40;;;;;;;14.48;2.67;;;11.70;99.90;;;;;;5999901;23;20023;-88
2023/01/01 08:32:06;;;;;;;15.45;2.78;;;11.80;99.90;;;;;;6047004;23;20027;-88
2023/01/01 08:34:35;;;;;;;11.85;2.83;;;11.80;99.90;;;;;;5998124;23;20032;-87
2023/01/01 08:37:01;;;;;;;13.05;2.80;;;11.90;99.90;;;;;;5997568;23;20054;-89
2023/01/01 08:39:26;;;;;;;14.63;2.80;;;11.90;99.90;;;;;;5997953;23;20404;-87
2023/01/01 08:41:52;;;;;;;11.82;2.50;;;11.80;99.90;;;;;;6045810;23;20055;-88
2023/01/01 08:44:18;;;;;;;13.88;3.17;;;11.80;99.90;;;;;;5998469;23;20007;-89
2023/01/01 08:46:44;;;;;;;12.73;2.63;;;11.70;99.90;;;;;;6070119;23;20035;-88
2023/01/01 08:49:13;;;;;;;12.60;2.30;;;11.70;99.90;;;;;;6021394;23;20041;-88
2023/01/01 08:51:39;;;;;;;17.33;2.88;;;11.70;99.90;;;;;;6021547;23;20029;-88
2023/01/01 08:54:05;;;;;;;16.35;3.28;;;11.60;99.90;;;;;;6045727;23;20124;-88
2023/01/01 08:56:31;;;;;;;11.45;2.63;;;11.70;99.90;;;;;;6048387;23;20311;-87
2023/01/01 08:58:57;;;;;;;15.90;2.53;;;11.70;99.90;;;;;;6049864;23;20075;-89
2023/01/01 09:01:25;;;;;;;17.02;2.72;;;11.70;99.90;;;;;;6003647;23;20046;-89
2023/01/01 09:03:50;;;;;;;13.63;3.05;;;11.80;99.90;;;;;;6001434;23;20058;-87
2023/01/01 09:06:16;;;;;;;12.38;3.05;;;11.80;99.90;;;;;;6001852;23;20480;-87
2023/01/01 09:08:42;;;;;;;17.63;2.50;;;11.70;99.90;;;;;;6026066;23;20646;-88
2023/01/01 09:11:25;;;;;;;13.10;2.83;;;11.70;99.90;;;;;;6073311;23;20030;-87
2023/01/01 09:13:51;;;;;;;17.25;3.83;;;11.70;99.90;;;;;;6026142;23;20030;-91
2023/01/01 09:16:17;;;;;;;16.83;3.70;;;11.70;99.90;;;;;;6048772;23;20097;-88
2023/01/01 09:18:43;;;;;;;12.05;2.97;;;11.80;99.90;;;;;;6002006;23;20102;-89
2023/01/01 09:21:08;;;;;;;15.85;2.67;;;11.80;99.90;;;;;;6073315;23;20062;-87
2023/01/01 09:23:37;;;;;;;17.67;3.55;;;11.80;99.90;;;;;;6026613;23;20019;-88
2023/01/01 09:26:04;;;;;;;18.27;3.33;;;11.80;99.90;;;;;;6073600;23;20025;-87
2023/01/01 09:28:30;;;;;;;13.02;2.88;;;11.70;99.90;;;;;;6002914;23;20019;-87
2023/01/01 09:30:55;;;;;;;12.07;3.08;;;11.70;99.90;;;;;;6073640;23;20479;-86
2023/01/01 09:33:23;;;;;;;22.20;4.10;;;11.80;99.90;;;;;;6003618;23;20011;-87
2023/01/01 09:35:52;;;;;;;18.08;3.20;;;11.80;99.90;;;;;;6024867;23;20539;-88
2023/01/01 09:38:18;;;;;;;19.13;3.53;;;11.80;99.90;;;;;;6072290;23;20505;-87
2023/01/01 09:41:02;;;;;;;18.10;3.47;;;11.80;99.90;;;;;;6050534;23;20063;-89
2023/01/01 09:43:55;;;;;;;15.25;3.45;;;11.80;99.90;;;;;;6025107;23;20030;-87
2023/01/01 09:46:23;;;;;;;14.25;3.10;;;11.80;99.90;;;;;;6000067;23;20015;-87
2023/01/01 09:48:56;;;;;;;10.80;2.75;;;11.80;99.90;;;;;;6046651;23;20529;-88
2023/01/01 09:51:26;;;;;;;20.23;4.00;;;11.80;99.90;;;;;;6023368;23;20101;-88
2023/01/01 09:54:06;;;;;;;14.82;3.75;;;11.90;99.90;;;;;;6072359;23;20023;-88
2023/01/01 09:56:35;;;;;;;21.02;3.47;;;11.90;99.90;;;;;;6001310;23;20019;-88
2023/01/01 09:59:02;;;;;;;18.13;3.95;;;11.80;99.90;;;;;;5999352;23;20023;-89
2023/01/01 10:01:42;;;;;;;17.90;3.33;;;11.90;99.90;;;;;;6001223;23;20015;-88
2023/01/01 10:04:30;;;;;;;21.67;3.22;;;11.90;99.90;;;;;;6024668;23;20023;-88
2023/01/01 10:07:08;;;;;;;16.67;2.92;;;11.90;99.90;;;;;;6070919;23;20027;-88
2023/01/01 10:09:59;;;;;;;9.25;2.80;;;11.90;99.90;;;;;;6023863;23;20413;-88
2023/01/01 10:12:44;;;;;;;13.85;3.25;;;11.90;99.90;;;;;;6072879;23;20272;-88
2023/01/01 10:15:43;;;;;;;19.52;3.67;;;12.00;99.90;;;;;;6048691;23;20019;-88
2023/01/01 10:18:18;;;;;;;19.15;2.85;;;12.00;99.90;;;;;;6000796;23;20141;-87
2023/01/01 10:21:00;;;;;;;;;;;11.90;99.90;;;;;;6003167;23;20127;-87
2023/01/01 10:23:32;;;;;;;18.50;3.22;;;12.00;99.90;;;;;;6048801;23;20012;-87
2023/01/01 10:26:07;;;;;;;13.50;2.85;;;12.00;99.90;;;;;;6002314;23;20042;-86
2023/01/01 10:28:42;;;;;;;16.40;3.00;;;12.00;99.90;;;;;;6050409;23;20106;-87
2023/01/01 10:31:22;;;;;;;16.02;2.95;;;12.10;99.90;;;;;;6001247;23;20019;-89
2023/01/01 10:33:48;;;;;;;15.93;3.10;;;12.10;99.90;;;;;;6025855;23;20051;-88
2023/01/01 10:36:17;;;;;;;12.95;2.55;;;12.00;99.90;;;;;;6001357;23;20087;-89
2023/01/01 10:38:43;;;;;;;15.43;2.72;;;11.90;99.90;;;;;;6025131;23;20110;-88
2023/01/01 10:41:10;;;;;;;14.75;3.10;;;11.90;99.90;;;;;;6001894;23;20047;-89
2023/01/01 10:43:36;;;;;;;13.70;2.65;;;11.80;99.90;;;;;;6002235;23;20022;-88
2023/01/01 10:46:03;;;;;;;12.95;3.20;;;11.80;99.90;;;;;;6048622;23;20066;-89
2023/01/01 10:48:31;;;;;;;11.98;2.55;;;11.70;99.90;;;;;;6001731;23;20103;-88
2023/01/01 10:50:58;;;;;;;11.40;2.60;;;11.70;99.90;;;;;;6000760;23;20019;-88
2023/01/01 10:53:51;;;;;;;14.30;2.75;;;11.60;99.90;;;;;;6026470;23;20027;-89
2023/01/01 10:56:22;;;;;;;10.23;2.55;;;11.60;99.90;;;;;;6025142;23;20019;-87
2023/01/01 10:58:57;;;;;;;12.50;2.67;;;11.70;99.90;;;;;;6001521;23;20027;-89
2023/01/01 11:01:32;;;;;;;12.30;2.40;;;11.70;99.90;;;;;;6073769;23;20067;-87
2023/01/01 11:04:07;;;;;;;12.05;2.33;;;11.70;99.90;;;;;;6000876;23;20023;-88
2023/01/01 11:06:54;;;;;;;12.77;2.80;;;11.70;99.90;;;;;;6023494;23;20086;-88
2023/01/01 11:09:22;;;;;;;6.78;2.28;;;11.70;99.90;;;;;;6047484;23;20073;-87
2023/01/01 11:11:56;;;;;;;8.27;2.65;;;11.80;99.90;;;;;;6023729;23;20151;-88
2023/01/01 11:14:44;;;;;;;11.73;2.78;;;11.80;99.90;;;;;;6072553;23;20108;-87
2023/01/01 11:17:20;;;;;;;9.35;2.35;;;11.70;99.90;;;;;;6073357;23;20023;-90
2023/01/01 11:19:48;;;;;;;15.05;3.28;;;11.70;99.90;;;;;;6073545;23;20465;-88
2023/01/01 11:22:36;;;;;;;13.88;2.20;;;11.80;99.90;;;;;;6048685;23;20015;-89
2023/01/01 11:25:04;;;;;;;8.80;2.88;;;11.90;99.90;;;;;;6024858;23;20023;-87
2023/01/01 11:27:29;;;;;;;8.60;2.67;;;11.90;99.90;;;;;;6048159;23;20026;-87
2023/01/01 11:30:27;;;;;;;10.38;2.17;;;11.90;99.90;;;;;;6000465;23;20024;-88
2023/01/01 11:32:58;;;;;;;10.48;2.15;;;11.90;99.90;;;;;;6001013;23;20078;-88
2023/01/01 11:35:26;;;;;;;12.35;2.30;;;11.90;99.90;;;;;;6001402;23;20011;-88
2023/01/01 11:37:54;;;;;;;12.35;2.55;;;11.90;99.90;;;;;;6070463;23;20019;-89
2023/01/01 11:40:28;;;;;;;9.63;1.88;;;11.90;99.90;;;;;;6024940;23;20012;-87
2023/01/01 11:42:58;;;;;;;15.27;2.47;;;11.90;99.90;;;;;;6047963;23;20022;-87
2023/01/01 11:45:33;;;;;;;11.73;2.10;;;11.90;99.90;;;;;;6001183;23;20015;-89
2023/01/01 11:48:02;;;;;;;12.48;2.45;;;11.90;99.90;;;;;;5999844;23;20190;-88
2023/01/01 11:50:40;;;;;;;11.85;2.22;;;12.00;99.90;;;;;;5998691;23;20333;-89
2023/01/01 11:53:21;;;;;;;13.13;2.92;;;12.10;99.90;;;;;;6024680;23;20023;-88
2023/01/01 11:55:58;;;;;;;11.50;2.88;;;12.10;99.90;;;;;;6025194;23;20019;-87
2023/01/01 11:58:30;;;;;;;10.20;2.60;;;12.20;99.90;;;;;;6023641;23;20056;-88
2023/01/01 12:01:00;;;;;;;8.68;2.25;;;12.20;99.90;;;;;;6023681;23;20015;-88
2023/01/01 12:03:34;;;;;;;10.98;2.60;;;12.30;99.90;;;;;;6000566;23;20015;-88
2023/01/01 12:06:32;;;;;;;13.07;3.17;;;12.40;99.90;;;;;;6023282;23;20023;-89
2023/01/01 12:09:44;;;;;;;11.93;3.33;;;12.40;99.90;;;;;;6024342;23;20312;-87
2023/01/01 12:12:33;;;;;;;13.18;2.63;;;12.50;99.90;;;;;;6000906;23;20034;-88
2023/01/01 12:15:30;;;;;;;14.57;3.00;;;12.50;99.90;;;;;;6000085;23;20019;-88
2023/01/01 12:18:18;;;;;;;14.05;2.83;;;12.40;99.90;;;;;;6071353;23;20086;-88
2023/01/01 12:21:02;;;;;;;10.07;2.20;;;12.40;99.90;;;;;;5991946;23;20150;-90
2023/01/01 12:23:28;;;;;;;17.60;3.00;;;12.40;99.90;;;;;;6022368;23;20528;-88
2023/01/01 12:26:03;;;;;;;14.32;2.85;;;12.40;99.90;;;;;;6000162;23;20015;-87
2023/01/01 12:28:40;;;;;;;12.98;2.50;;;12.40;99.90;;;;;;6024528;23;20432;-88
2023/01/01 12:31:18;;;;;;;12.48;2.83;;;12.40;99.90;;;;;;6022559;23;20027;-88
2023/01/01 12:33:56;;;;;;;8.75;2.45;;;12.40;99.90;;;;;;6001333;23;20102;-87
2023/01/01 12:36:40;;;;;;;11.10;2.25;;;12.40;99.90;;;;;;6022179;23;20039;-86
2023/01/01 12:39:42;;;;;;;11.02;2.13;;;12.40;99.90;;;;;;5999050;23;20023;-87
2023/01/01 12:42:26;;;;;;;11.98;2.35;;;12.40;99.90;;;;;;6022931;23;20058;-89
2023/01/01 12:45:03;;;;;;;13.27;2.67;;;12.40;99.90;;;;;;6047057;23;20019;-88
2023/01/01 12:47:53;;;;;;;13.98;3.03;;;12.40;99.90;;;;;;6023125;23;20054;-89
2023/01/01 12:50:34;;;;;;;15.95;2.78;;;12.40;99.90;;;;;;5998294;23;20864;-87
2023/01/01 12:53:27;;;;;;;14.63;2.75;;;12.40;99.90;;;;;;6021742;23;20245;-88
2023/01/01 12:56:24;;;;;;;11.52;2.30;;;12.40;99.90;;;;;;6011744;23;20050;-88
2023/01/01 12:58:56;;;;;;;15.90;3.33;;;12.50;99.90;;;;;;5997687;23;20094;-88
2023/01/01 13:01:30;;;;;;;11.55;2.53;;;12.50;99.90;;;;;;5999494;23;20656;-89
2023/01/01 13:04:01;;;;;;;12.50;3.60;;;12.50;99.90;;;;;;5997820;23;20027;-89
2023/01/01 13:06:42;;;;;;;10.85;2.40;;;12.50;99.90;;;;;;6021879;23;20024;-88